createdAt,value
2023-01-30T00:01:05.447Z,24.17
2023-01-30T00:03:32.835Z,26.80
2023-01-30T00:06:00.128Z,26.63
2023-01-30T00:08:27.114Z,30.05
2023-01-30T00:10:54.570Z,29.25
2023-01-30T00:13:21.646Z,29.63
2023-01-30T00:15:49.143Z,32.97
2023-01-30T00:18:16.267Z,31.48
2023-01-30T00:20:43.528Z,27.00
2023-01-30T00:23:10.551Z,26.33
2023-01-30T00:25:38.112Z,26.13
2023-01-30T00:28:05.151Z,28.10
2023-01-30T00:30:32.424Z,28.08
2023-01-30T00:33:00.066Z,27.25
2023-01-30T00:35:28.540Z,27.25
2023-01-30T00:37:59.456Z,26.45
2023-01-30T00:40:29.313Z,26.83
2023-01-30T00:43:15.085Z,27.10
2023-01-30T00:46:04.203Z,27.77
2023-01-30T00:48:32.488Z,23.27
2023-01-30T00:50:59.882Z,26.15
2023-01-30T00:53:29.049Z,20.45
2023-01-30T00:55:56.869Z,21.95
2023-01-30T00:58:24.777Z,23.80
2023-01-30T01:00:52.994Z,23.48
2023-01-30T01:03:20.275Z,23.40
2023-01-30T01:05:48.287Z,22.85
2023-01-30T01:08:15.574Z,23.08
2023-01-30T01:10:43.250Z,20.20
2023-01-30T01:13:10.643Z,21.75
2023-01-30T01:15:38.213Z,21.15
2023-01-30T01:18:06.504Z,20.70
2023-01-30T01:20:34.315Z,18.92
2023-01-30T01:23:03.561Z,18.38
2023-01-30T01:25:31.183Z,21.50
2023-01-30T01:27:58.060Z,19.60
2023-01-30T01:30:25.315Z,18.17
2023-01-30T01:32:52.347Z,14.50
2023-01-30T01:35:20.057Z,17.90
2023-01-30T01:37:47.361Z,20.48
2023-01-30T01:40:39.891Z,15.90
2023-01-30T01:43:24.424Z,14.82
2023-01-30T01:46:14.113Z,16.60
2023-01-30T01:48:52.440Z,17.27
2023-01-30T01:51:33.689Z,17.95
2023-01-30T01:54:05.219Z,18.27
2023-01-30T01:56:39.062Z,14.15
2023-01-30T01:59:16.602Z,18.50
2023-01-30T02:01:47.315Z,20.38
2023-01-30T02:04:34.716Z,14.30
2023-01-30T02:07:02.542Z,17.33
2023-01-30T02:09:30.058Z,16.80
2023-01-30T02:12:03.449Z,13.63
2023-01-30T02:14:36.076Z,16.55
2023-01-30T02:17:03.498Z,16.00
2023-01-30T02:19:54.842Z,19.38
2023-01-30T02:23:08.935Z,21.40
2023-01-30T02:25:57.556Z,23.77
2023-01-30T02:29:04.165Z,21.23
2023-01-30T02:32:02.407Z,21.30
2023-01-30T02:34:45.710Z,22.73
2023-01-30T02:40:49.679Z,28.25
2023-01-30T02:43:46.538Z,26.63
2023-01-30T02:46:34.429Z,28.67
2023-01-30T02:49:40.910Z,28.38
2023-01-30T02:52:12.274Z,32.80
2023-01-30T02:54:39.622Z,30.02
2023-01-30T02:57:23.732Z,30.17
2023-01-30T03:00:01.056Z,27.98
2023-01-30T03:03:27.162Z,28.02
2023-01-30T03:08:44.057Z,26.80
2023-01-30T03:11:12.520Z,26.45
2023-01-30T03:14:09.411Z,24.47
2023-01-30T03:16:41.473Z,26.17
2023-01-30T03:19:13.713Z,24.17
2023-01-30T03:21:45.406Z,26.42
2023-01-30T03:24:14.704Z,27.13
2023-01-30T03:26:54.491Z,27.13
2023-01-30T03:29:22.247Z,21.75
2023-01-30T03:31:50.154Z,23.92
2023-01-30T03:34:17.555Z,23.10
2023-01-30T03:36:44.879Z,25.67
2023-01-30T03:39:12.642Z,22.98
2023-01-30T03:41:40.526Z,22.27
2023-01-30T03:44:08.600Z,23.05
2023-01-30T03:46:35.724Z,21.10
2023-01-30T03:49:03.227Z,20.48
2023-01-30T03:51:30.283Z,21.55
2023-01-30T03:53:57.786Z,21.05
2023-01-30T03:56:24.762Z,24.40
2023-01-30T03:58:52.307Z,22.10
2023-01-30T04:01:28.421Z,24.23
2023-01-30T04:03:55.894Z,23.23
2023-01-30T04:06:22.961Z,21.23
2023-01-30T04:08:55.780Z,21.83
2023-01-30T04:11:35.271Z,20.92
2023-01-30T04:14:02.770Z,19.48
2023-01-30T04:16:29.885Z,21.30
2023-01-30T04:19:16.283Z,21.13
2023-01-30T04:21:43.666Z,22.15
2023-01-30T04:24:11.006Z,23.25
2023-01-30T04:26:38.129Z,20.10
2023-01-30T04:29:05.829Z,19.80
2023-01-30T04:31:33.677Z,21.73
2023-01-30T04:34:17.219Z,20.13
2023-01-30T04:36:44.367Z,21.08
2023-01-30T04:39:12.886Z,18.05
2023-01-30T04:41:41.047Z,20.03
2023-01-30T04:44:08.393Z,19.52
2023-01-30T04:46:47.666Z,18.70
2023-01-30T04:49:15.908Z,16.85
2023-01-30T04:51:43.856Z,17.38
2023-01-30T04:54:11.468Z,15.73
2023-01-30T04:56:38.463Z,20.85
2023-01-30T04:59:06.667Z,21.38
2023-01-30T05:01:40.359Z,19.40
2023-01-30T05:04:08.599Z,21.58
2023-01-30T05:06:36.675Z,19.55
2023-01-30T05:09:04.977Z,21.58
2023-01-30T05:11:34.616Z,22.95
2023-01-30T05:14:02.065Z,21.40
2023-01-30T05:16:29.718Z,21.73
2023-01-30T05:18:57.206Z,21.38
2023-01-30T05:21:28.573Z,21.15
2023-01-30T05:23:57.566Z,21.05
2023-01-30T05:26:25.298Z,20.77
2023-01-30T05:28:57.273Z,20.85
2023-01-30T05:31:24.911Z,22.13
2023-01-30T05:33:53.252Z,19.52
2023-01-30T05:36:23.151Z,22.70
2023-01-30T05:38:50.477Z,20.00
2023-01-30T05:41:18.671Z,17.30
2023-01-30T05:43:50.858Z,18.10
2023-01-30T05:46:18.727Z,21.90
2023-01-30T05:48:46.527Z,18.50
2023-01-30T05:51:26.027Z,17.92
2023-01-30T05:53:53.731Z,18.47
2023-01-30T05:56:21.366Z,19.70
2023-01-30T05:58:56.330Z,19.38
2023-01-30T06:01:23.786Z,17.67
2023-01-30T06:03:51.057Z,18.70
2023-01-30T06:06:19.500Z,15.93
2023-01-30T06:08:47.282Z,18.98
2023-01-30T06:11:17.421Z,18.15
2023-01-30T06:13:45.006Z,17.75
2023-01-30T06:16:14.923Z,18.15
2023-01-30T06:18:42.855Z,21.27
2023-01-30T06:21:10.132Z,22.27
2023-01-30T06:23:37.421Z,18.80
2023-01-30T06:26:07.402Z,20.67
2023-01-30T06:28:37.566Z,14.85
2023-01-30T06:31:07.790Z,19.95
2023-01-30T06:33:35.582Z,20.13
2023-01-30T06:36:03.063Z,21.10
2023-01-30T06:38:30.520Z,19.52
2023-01-30T06:40:57.557Z,17.30
2023-01-30T06:43:24.978Z,21.02
2023-01-30T06:45:51.927Z,18.37
2023-01-30T06:48:19.635Z,18.63
2023-01-30T06:50:48.225Z,19.85
2023-01-30T06:53:15.549Z,19.30
2023-01-30T06:55:42.691Z,20.77
2023-01-30T06:58:12.703Z,19.17
2023-01-30T07:00:42.338Z,21.90
2023-01-30T07:03:16.181Z,19.48
2023-01-30T07:05:46.659Z,22.60
2023-01-30T07:08:15.869Z,18.60
2023-01-30T07:10:44.452Z,18.90
2023-01-30T07:13:12.292Z,17.83
2023-01-30T07:15:39.443Z,18.02
2023-01-30T07:18:06.815Z,18.50
2023-01-30T07:20:34.529Z,17.55
2023-01-30T07:23:04.625Z,18.17
2023-01-30T07:25:31.569Z,17.73
2023-01-30T07:28:02.219Z,17.63
2023-01-30T07:30:32.741Z,18.55
2023-01-30T07:33:00.911Z,20.08
2023-01-30T07:35:32.147Z,20.02
2023-01-30T07:37:59.604Z,20.77
2023-01-30T07:40:27.195Z,22.75
2023-01-30T07:43:11.300Z,20.52
2023-01-30T07:45:45.797Z,22.83
2023-01-30T07:48:17.484Z,24.08
2023-01-30T07:50:46.053Z,22.17
2023-01-30T07:53:18.455Z,24.58
2023-01-30T07:55:45.827Z,23.98
2023-01-30T07:58:18.082Z,31.50
2023-01-30T08:00:45.421Z,31.08
2023-01-30T08:03:15.529Z,33.42
2023-01-30T08:05:45.130Z,35.97
2023-01-30T08:08:12.341Z,32.33
2023-01-30T08:10:39.262Z,34.90
2023-01-30T08:13:06.769Z,33.22
2023-01-30T08:15:33.746Z,33.03
2023-01-30T08:18:02.305Z,31.20
2023-01-30T08:20:29.484Z,32.55
2023-01-30T08:22:58.867Z,33.45
2023-01-30T08:25:26.112Z,41.97
2023-01-30T08:27:53.890Z,45.17
2023-01-30T08:30:22.592Z,53.78
2023-01-30T08:32:50.104Z,93.50
2023-01-30T08:35:17.660Z,106.38
2023-01-30T08:37:44.994Z,128.30
2023-01-30T08:40:12.803Z,134.50
2023-01-30T08:42:40.342Z,144.77
2023-01-30T08:45:08.193Z,129.23
2023-01-30T08:47:35.639Z,118.60
2023-01-30T08:50:04.514Z,95.43
2023-01-30T08:52:34.779Z,78.80
2023-01-30T08:55:03.359Z,49.15
2023-01-30T08:57:32.537Z,37.22
2023-01-30T08:59:59.643Z,27.05
2023-01-30T09:02:27.009Z,20.38
2023-01-30T09:04:54.144Z,20.48
2023-01-30T09:07:21.321Z,17.20
2023-01-30T09:09:48.649Z,15.00
2023-01-30T09:12:16.122Z,14.75
2023-01-30T09:14:43.093Z,13.68
2023-01-30T09:17:10.258Z,10.77
2023-01-30T09:19:37.491Z,11.63
2023-01-30T09:22:07.588Z,11.27
2023-01-30T09:24:35.949Z,9.80
2023-01-30T09:27:03.707Z,14.95
2023-01-30T09:29:30.973Z,13.07
2023-01-30T09:31:58.675Z,8.85
2023-01-30T09:34:28.640Z,15.82
2023-01-30T09:37:04.662Z,14.73
2023-01-30T09:39:32.118Z,16.33
2023-01-30T09:42:14.448Z,13.57
2023-01-30T09:45:40.045Z,18.67
2023-01-30T09:48:20.022Z,18.77
2023-01-30T09:51:17.814Z,23.50
2023-01-30T09:54:24.520Z,21.33
2023-01-30T09:57:23.154Z,17.75
2023-01-30T10:00:12.623Z,17.60
2023-01-30T10:03:15.461Z,15.43
2023-01-30T10:05:52.955Z,13.80
2023-01-30T10:08:59.941Z,14.00
2023-01-30T10:12:06.022Z,16.60
2023-01-30T10:14:49.565Z,13.00
2023-01-30T10:17:47.234Z,13.55
2023-01-30T10:21:12.635Z,11.30
2023-01-30T10:24:06.813Z,13.68
2023-01-30T10:26:34.451Z,13.02
2023-01-30T10:29:36.883Z,13.68
2023-01-30T10:32:11.480Z,16.45
2023-01-30T10:34:47.957Z,14.30
2023-01-30T10:37:40.706Z,13.20
2023-01-30T10:40:49.267Z,15.63
2023-01-30T10:43:27.703Z,13.00
2023-01-30T10:46:21.955Z,11.15
2023-01-30T10:49:04.872Z,8.75
2023-01-30T10:52:12.188Z,15.55
2023-01-30T10:54:56.123Z,12.98
2023-01-30T10:58:06.015Z,14.70
2023-01-30T11:01:01.133Z,17.77
2023-01-30T11:04:03.188Z,17.25
2023-01-30T11:06:33.564Z,48.20
2023-01-30T11:09:00.880Z,50.78
2023-01-30T11:11:51.291Z,49.28
2023-01-30T11:14:18.852Z,37.78
2023-01-30T11:16:57.699Z,33.17
2023-01-30T11:19:37.208Z,29.42
2023-01-30T11:22:06.510Z,20.15
2023-01-30T11:24:42.595Z,20.80
2023-01-30T11:27:32.609Z,14.95
2023-01-30T11:30:17.028Z,17.42
2023-01-30T11:32:48.832Z,16.60
2023-01-30T11:35:29.867Z,14.85
2023-01-30T11:38:23.178Z,19.00
2023-01-30T11:41:03.900Z,19.30
2023-01-30T11:43:33.693Z,14.07
2023-01-30T11:46:02.217Z,20.75
2023-01-30T11:49:08.659Z,18.40
2023-01-30T11:51:24.115Z,17.50
2023-01-30T11:54:05.987Z,17.08
2023-01-30T11:56:42.821Z,14.02
2023-01-30T11:59:36.962Z,18.13
2023-01-30T12:02:15.034Z,19.45
2023-01-30T12:04:48.217Z,26.35
2023-01-30T12:07:24.911Z,21.27
2023-01-30T12:09:54.303Z,23.80
2023-01-30T12:12:49.243Z,21.08
2023-01-30T12:15:25.185Z,20.50
2023-01-30T12:18:11.301Z,23.85
2023-01-30T12:20:52.843Z,22.02
2023-01-30T12:23:40.885Z,19.83
2023-01-30T12:26:24.684Z,17.10
2023-01-30T12:29:24.841Z,17.73
2023-01-30T12:32:03.575Z,17.92
2023-01-30T12:34:31.362Z,17.75
2023-01-30T12:37:23.251Z,19.02
2023-01-30T12:40:20.141Z,18.00
2023-01-30T12:43:23.179Z,17.42
2023-01-30T12:49:11.549Z,18.40
2023-01-30T12:52:11.051Z,17.80
2023-01-30T12:55:02.630Z,17.40
2023-01-30T12:57:44.962Z,18.10
2023-01-30T13:00:14.739Z,18.40
2023-01-30T13:03:06.014Z,24.27
2023-01-30T13:05:53.899Z,24.25
2023-01-30T13:08:55.238Z,24.50
2023-01-30T13:11:41.635Z,28.80
2023-01-30T13:14:26.418Z,25.60
2023-01-30T13:17:10.019Z,23.02
2023-01-30T13:19:58.036Z,27.80
2023-01-30T13:22:41.358Z,27.40
2023-01-30T13:25:17.811Z,27.27
2023-01-30T13:27:56.051Z,27.65
2023-01-30T13:30:27.595Z,28.10
2023-01-30T13:33:08.680Z,27.75
2023-01-30T13:35:52.516Z,25.42
2023-01-30T13:38:29.790Z,27.13
2023-01-30T13:41:00.777Z,26.63
2023-01-30T13:43:44.530Z,27.15
2023-01-30T13:46:24.429Z,24.90
2023-01-30T13:49:24.786Z,24.05
2023-01-30T13:52:10.523Z,22.60
2023-01-30T13:55:14.568Z,20.27
2023-01-30T13:57:56.642Z,24.40
2023-01-30T14:00:34.193Z,21.10
2023-01-30T14:03:04.402Z,19.13
2023-01-30T14:06:00.963Z,17.90
2023-01-30T14:08:38.587Z,18.23
2023-01-30T14:11:29.105Z,19.67
2023-01-30T14:14:30.570Z,20.45
2023-01-30T14:17:15.378Z,17.02
2023-01-30T14:20:05.073Z,23.35
2023-01-30T14:22:47.666Z,22.23
2023-01-30T14:28:00.157Z,22.10
2023-01-30T14:30:48.809Z,22.55
2023-01-30T14:33:21.705Z,23.17
2023-01-30T14:36:04.410Z,19.00
2023-01-30T14:38:38.406Z,16.60
2023-01-30T14:41:06.825Z,15.50
2023-01-30T14:43:42.372Z,18.70
2023-01-30T14:46:15.549Z,15.15
2023-01-30T14:48:54.071Z,15.27
2023-01-30T14:51:39.973Z,13.18
2023-01-30T14:54:13.901Z,15.52
2023-01-30T14:56:54.131Z,13.88
2023-01-30T14:59:37.872Z,14.95
2023-01-30T15:02:14.376Z,15.25
2023-01-30T15:04:58.240Z,15.05
2023-01-30T15:07:39.169Z,13.07
2023-01-30T15:10:41.418Z,15.30
2023-01-30T15:13:45.317Z,11.20
2023-01-30T15:17:05.592Z,14.02
2023-01-30T15:20:13.230Z,17.80
2023-01-30T15:23:10.794Z,18.75
2023-01-30T15:26:24.926Z,16.42
2023-01-30T15:29:35.004Z,17.13
2023-01-30T15:32:15.720Z,17.60
2023-01-30T15:35:18.836Z,15.80
2023-01-30T15:37:46.384Z,16.25
2023-01-30T15:40:16.651Z,15.10
2023-01-30T15:43:00.649Z,16.30
2023-01-30T15:45:36.871Z,14.73
2023-01-30T15:48:26.283Z,17.95
2023-01-30T15:50:58.875Z,16.83
2023-01-30T15:53:42.402Z,19.48
2023-01-30T15:56:17.715Z,21.45
2023-01-30T15:58:46.119Z,23.27
2023-01-30T16:01:20.863Z,27.90
2023-01-30T16:03:53.381Z,26.98
2023-01-30T16:06:34.634Z,32.20
2023-01-30T16:09:18.319Z,24.73
2023-01-30T16:11:45.341Z,23.60
2023-01-30T16:14:16.582Z,20.58
2023-01-30T16:17:06.899Z,21.52
2023-01-30T16:19:38.910Z,21.95
2023-01-30T16:22:17.199Z,15.68
2023-01-30T16:24:49.757Z,19.17
2023-01-30T16:30:07.608Z,16.30
2023-01-30T16:32:36.911Z,15.55
2023-01-30T16:35:27.361Z,17.13
2023-01-30T16:37:58.168Z,18.45
2023-01-30T16:40:31.841Z,16.17
2023-01-30T16:43:16.698Z,20.70
2023-01-30T16:45:52.900Z,12.38
2023-01-30T16:48:20.153Z,15.85
2023-01-30T16:51:12.587Z,16.85
2023-01-30T16:53:51.989Z,16.58
2023-01-30T16:56:21.392Z,14.80
2023-01-30T16:58:58.778Z,14.68
2023-01-30T17:01:41.504Z,15.40
2023-01-30T17:04:20.670Z,14.68
2023-01-30T17:07:04.599Z,13.60
2023-01-30T17:09:46.025Z,12.02
2023-01-30T17:12:31.096Z,13.20
2023-01-30T17:15:13.199Z,15.25
2023-01-30T17:17:44.313Z,12.27
2023-01-30T17:20:13.654Z,15.13
2023-01-30T17:22:45.999Z,18.25
2023-01-30T17:25:31.592Z,14.07
2023-01-30T17:27:59.299Z,13.35
2023-01-30T17:30:26.308Z,15.70
2023-01-30T17:32:53.879Z,16.75
2023-01-30T17:35:21.328Z,15.27
2023-01-30T17:37:59.707Z,14.02
2023-01-30T17:40:36.904Z,12.80
2023-01-30T17:43:05.396Z,12.55
2023-01-30T17:45:32.666Z,15.80
2023-01-30T17:47:59.987Z,13.02
2023-01-30T17:50:28.510Z,13.88
2023-01-30T17:52:55.831Z,12.63
2023-01-30T17:55:23.384Z,11.95
2023-01-30T17:57:50.834Z,10.93
2023-01-30T18:00:21.000Z,10.95
2023-01-30T18:02:48.954Z,11.60
2023-01-30T18:05:16.182Z,11.13
2023-01-30T18:07:43.900Z,10.40
2023-01-30T18:10:18.495Z,7.43
2023-01-30T18:12:46.808Z,9.57
2023-01-30T18:15:15.838Z,9.10
2023-01-30T18:17:47.624Z,9.48
2023-01-30T18:20:19.866Z,10.60
2023-01-30T18:25:14.978Z,10.15
2023-01-30T18:27:44.327Z,10.98
2023-01-30T18:30:16.880Z,9.88
2023-01-30T18:32:53.017Z,6.63
2023-01-30T18:35:23.009Z,11.15
2023-01-30T18:37:50.868Z,11.10
2023-01-30T18:40:20.161Z,12.68
2023-01-30T18:42:48.008Z,12.65
2023-01-30T18:45:15.276Z,12.90
2023-01-30T18:47:42.621Z,12.25
2023-01-30T18:50:10.454Z,10.82
2023-01-30T18:52:37.727Z,7.38
2023-01-30T18:55:06.409Z,10.95
2023-01-30T18:57:33.675Z,10.52
2023-01-30T19:00:00.591Z,9.00
2023-01-30T19:02:28.762Z,7.93
2023-01-30T19:04:55.810Z,10.32
2023-01-30T19:07:23.178Z,9.40
2023-01-30T19:09:50.086Z,7.45
2023-01-30T19:12:36.207Z,8.45
2023-01-30T19:15:03.688Z,13.00
2023-01-30T19:17:31.129Z,20.02
2023-01-30T19:20:01.100Z,22.60
2023-01-30T19:22:29.163Z,17.63
2023-01-30T19:24:56.079Z,13.77
2023-01-30T19:27:23.631Z,13.43
2023-01-30T19:29:50.654Z,12.00
2023-01-30T19:32:17.804Z,12.93
2023-01-30T19:34:45.238Z,13.25
2023-01-30T19:37:12.532Z,16.33
2023-01-30T19:39:39.428Z,15.18
2023-01-30T19:42:07.083Z,12.65
2023-01-30T19:44:34.022Z,11.77
2023-01-30T19:47:03.320Z,11.93
2023-01-30T19:49:30.360Z,10.73
2023-01-30T19:52:02.252Z,12.38
2023-01-30T19:54:29.515Z,7.32
2023-01-30T19:56:56.820Z,11.25
2023-01-30T19:59:27.120Z,10.75
2023-01-30T20:01:54.433Z,13.77
2023-01-30T20:04:21.507Z,11.20
2023-01-30T20:07:01.067Z,10.15
2023-01-30T20:09:29.324Z,11.73
2023-01-30T20:11:56.591Z,11.05
2023-01-30T20:14:23.530Z,11.45
2023-01-30T20:16:51.043Z,12.43
2023-01-30T20:19:18.041Z,12.55
2023-01-30T20:21:45.560Z,13.07
2023-01-30T20:24:15.396Z,9.30
2023-01-30T20:26:47.078Z,13.10
2023-01-30T20:31:45.516Z,7.95
2023-01-30T20:34:15.125Z,9.80
2023-01-30T20:36:42.513Z,9.73
2023-01-30T20:39:11.435Z,9.77
2023-01-30T20:41:38.820Z,11.60
2023-01-30T20:44:11.003Z,9.35
2023-01-30T20:46:46.762Z,7.32
2023-01-30T20:49:20.294Z,8.60
2023-01-30T20:51:51.480Z,12.65
2023-01-30T20:54:21.490Z,10.15
2023-01-30T20:56:52.184Z,8.40
2023-01-30T20:59:24.253Z,7.75
2023-01-30T21:01:52.876Z,11.70
2023-01-30T21:04:22.063Z,12.88
2023-01-30T21:06:49.703Z,7.03
2023-01-30T21:09:20.819Z,10.02
2023-01-30T21:11:51.005Z,13.75
2023-01-30T21:14:18.599Z,10.68
2023-01-30T21:16:46.485Z,9.93
2023-01-30T21:19:17.125Z,14.93
2023-01-30T21:21:52.589Z,12.82
2023-01-30T21:24:27.251Z,11.85
2023-01-30T21:26:56.129Z,12.40
2023-01-30T21:29:26.448Z,14.32
2023-01-30T21:31:55.602Z,17.58
2023-01-30T21:34:23.176Z,16.30
2023-01-30T21:37:09.210Z,17.42
2023-01-30T21:39:54.739Z,16.10
2023-01-30T21:42:41.148Z,13.90
2023-01-30T21:45:08.795Z,10.93
2023-01-30T21:47:36.873Z,13.38
2023-01-30T21:50:05.858Z,9.23
2023-01-30T21:52:33.354Z,7.40
2023-01-30T21:55:00.722Z,13.77
2023-01-30T21:57:29.494Z,10.00
2023-01-30T21:59:56.634Z,10.57
2023-01-30T22:02:23.972Z,10.15
2023-01-30T22:04:51.490Z,11.18
2023-01-30T22:07:21.295Z,9.93
2023-01-30T22:09:49.003Z,11.07
2023-01-30T22:12:16.812Z,13.30
2023-01-30T22:14:44.143Z,9.55
2023-01-30T22:17:11.470Z,10.55
2023-01-30T22:19:39.751Z,12.23
2023-01-30T22:22:06.922Z,9.15
2023-01-30T22:24:34.020Z,9.48
2023-01-30T22:27:02.338Z,10.93
2023-01-30T22:29:29.433Z,10.90
2023-01-30T22:31:56.814Z,14.45
2023-01-30T22:34:24.061Z,11.60
2023-01-30T22:36:51.783Z,9.27
2023-01-30T22:39:19.883Z,12.43
2023-01-30T22:41:47.156Z,9.63
2023-01-30T22:44:14.139Z,12.38
2023-01-30T22:46:41.841Z,11.18
2023-01-30T22:49:10.119Z,11.30
2023-01-30T22:51:40.878Z,10.02
2023-01-30T22:54:15.723Z,12.27
2023-01-30T22:56:46.933Z,10.65
2023-01-30T22:59:14.449Z,11.23
2023-01-30T23:01:48.201Z,10.73
2023-01-30T23:04:17.553Z,9.65
2023-01-30T23:06:45.688Z,10.73
2023-01-30T23:09:17.605Z,12.00
2023-01-30T23:12:11.068Z,9.55
2023-01-30T23:14:39.365Z,9.82
2023-01-30T23:17:25.866Z,10.40
2023-01-30T23:19:54.748Z,10.50
2023-01-30T23:22:22.339Z,8.57
2023-01-30T23:24:51.015Z,10.15
2023-01-30T23:27:19.323Z,10.63
2023-01-30T23:29:46.724Z,9.88
2023-01-30T23:32:15.029Z,11.23
2023-01-30T23:34:42.280Z,8.68
2023-01-30T23:37:09.641Z,9.98
2023-01-30T23:39:36.690Z,9.43
2023-01-30T23:42:04.083Z,6.43
2023-01-30T23:44:31.048Z,10.57
2023-01-30T23:46:58.299Z,10.02
2023-01-30T23:49:25.651Z,8.60
2023-01-30T23:51:52.880Z,8.32
2023-01-30T23:54:19.835Z,10.88
2023-01-30T23:56:47.531Z,9.27
2023-01-30T23:59:14.590Z,9.20
